sensor_id;sensor_type;location;lat;lon;timestamp;P1;durP1;ratioP1;P2;durP2;ratioP2
7150;SDS011;3617;48.836;9.172;2023-08-31T00:02:13;2.13;;;1.63;;
7150;SDS011;3617;48.836;9.172;2023-08-31T00:04:39;2.33;;;1.70;;
7150;SDS011;3617;48.836;9.172;2023-08-31T00:07:05;2.93;;;1.83;;
7150;SDS011;3617;48.836;9.172;2023-08-31T00:09:32;2.47;;;1.53;;
7150;SDS011;3617;48.836;9.172;2023-08-31T00:11:58;1.63;;;1.30;;
7150;SDS011;3617;48.836;9.172;2023-08-31T00:14:24;2.27;;;1.60;;
7150;SDS011;3617;48.836;9.172;2023-08-31T00:16:51;1.93;;;1.53;;
7150;SDS011;3617;48.836;9.172;2023-08-31T00:19:18;4.40;;;1.70;;
7150;SDS011;3617;48.836;9.172;2023-08-31T00:21:44;3.13;;;1.30;;
7150;SDS011;3617;48.836;9.172;2023-08-31T00:24:10;1.97;;;1.53;;
7150;SDS011;3617;48.836;9.172;2023-08-31T00:26:36;2.63;;;1.50;;
7150;SDS011;3617;48.836;9.172;2023-08-31T00:29:08;2.43;;;1.77;;
7150;SDS011;3617;48.836;9.172;2023-08-31T00:31:35;3.07;;;1.60;;
7150;SDS011;3617;48.836;9.172;2023-08-31T00:34:01;2.27;;;1.40;;
7150;SDS011;3617;48.836;9.172;2023-08-31T00:36:29;1.60;;;1.50;;
7150;SDS011;3617;48.836;9.172;2023-08-31T00:38:55;1.73;;;1.20;;
7150;SDS011;3617;48.836;9.172;2023-08-31T00:41:22;1.90;;;1.67;;
7150;SDS011;3617;48.836;9.172;2023-08-31T00:43:48;2.90;;;1.90;;
7150;SDS011;3617;48.836;9.172;2023-08-31T00:46:14;2.57;;;1.77;;
7150;SDS011;3617;48.836;9.172;2023-08-31T00:48:41;4.67;;;1.60;;
7150;SDS011;3617;48.836;9.172;2023-08-31T00:51:07;2.23;;;1.63;;
7150;SDS011;3617;48.836;9.172;2023-08-31T00:53:35;3.03;;;1.80;;
7150;SDS011;3617;48.836;9.172;2023-08-31T00:56:01;2.00;;;1.50;;
7150;SDS011;3617;48.836;9.172;2023-08-31T00:58:28;4.00;;;1.67;;
7150;SDS011;3617;48.836;9.172;2023-08-31T01:01:10;2.67;;;1.80;;
7150;SDS011;3617;48.836;9.172;2023-08-31T01:03:43;1.60;;;1.30;;
7150;SDS011;3617;48.836;9.172;2023-08-31T01:06:23;2.13;;;1.33;;
7150;SDS011;3617;48.836;9.172;2023-08-31T01:08:54;5.03;;;1.73;;
7150;SDS011;3617;48.836;9.172;2023-08-31T01:11:34;2.37;;;1.40;;
7150;SDS011;3617;48.836;9.172;2023-08-31T01:14:12;4.90;;;1.67;;
7150;SDS011;3617;48.836;9.172;2023-08-31T01:16:39;2.03;;;1.53;;
7150;SDS011;3617;48.836;9.172;2023-08-31T01:19:10;2.60;;;2.20;;
7150;SDS011;3617;48.836;9.172;2023-08-31T01:21:43;3.43;;;1.70;;
7150;SDS011;3617;48.836;9.172;2023-08-31T01:24:12;3.83;;;2.00;;
7150;SDS011;3617;48.836;9.172;2023-08-31T01:26:39;3.93;;;1.57;;
7150;SDS011;3617;48.836;9.172;2023-08-31T01:29:05;1.90;;;1.50;;
7150;SDS011;3617;48.836;9.172;2023-08-31T01:31:32;2.53;;;1.70;;
7150;SDS011;3617;48.836;9.172;2023-08-31T01:33:58;3.30;;;1.90;;
7150;SDS011;3617;48.836;9.172;2023-08-31T01:36:26;2.73;;;1.77;;
7150;SDS011;3617;48.836;9.172;2023-08-31T01:41:44;2.50;;;2.03;;
7150;SDS011;3617;48.836;9.172;2023-08-31T01:44:12;5.50;;;1.70;;
7150;SDS011;3617;48.836;9.172;2023-08-31T01:46:40;3.07;;;2.17;;
7150;SDS011;3617;48.836;9.172;2023-08-31T01:49:06;2.47;;;1.97;;
7150;SDS011;3617;48.836;9.172;2023-08-31T01:51:33;2.23;;;1.87;;
7150;SDS011;3617;48.836;9.172;2023-08-31T01:53:59;3.40;;;1.77;;
7150;SDS011;3617;48.836;9.172;2023-08-31T01:56:25;2.30;;;1.97;;
7150;SDS011;3617;48.836;9.172;2023-08-31T01:58:51;2.97;;;1.70;;
7150;SDS011;3617;48.836;9.172;2023-08-31T02:01:17;3.13;;;2.10;;
7150;SDS011;3617;48.836;9.172;2023-08-31T02:03:43;1.93;;;1.53;;
7150;SDS011;3617;48.836;9.172;2023-08-31T02:06:09;4.87;;;2.30;;
7150;SDS011;3617;48.836;9.172;2023-08-31T02:08:35;3.47;;;1.63;;
7150;SDS011;3617;48.836;9.172;2023-08-31T02:11:01;3.10;;;1.97;;
7150;SDS011;3617;48.836;9.172;2023-08-31T02:13:27;2.50;;;1.77;;
7150;SDS011;3617;48.836;9.172;2023-08-31T02:15:53;1.80;;;1.60;;
7150;SDS011;3617;48.836;9.172;2023-08-31T02:18:19;3.83;;;1.97;;
7150;SDS011;3617;48.836;9.172;2023-08-31T02:20:45;2.53;;;1.63;;
7150;SDS011;3617;48.836;9.172;2023-08-31T02:23:11;2.37;;;1.70;;
7150;SDS011;3617;48.836;9.172;2023-08-31T02:25:38;3.67;;;1.97;;
7150;SDS011;3617;48.836;9.172;2023-08-31T02:28:04;5.67;;;1.70;;
7150;SDS011;3617;48.836;9.172;2023-08-31T02:30:30;2.23;;;1.63;;
7150;SDS011;3617;48.836;9.172;2023-08-31T02:32:56;1.90;;;1.33;;
7150;SDS011;3617;48.836;9.172;2023-08-31T02:35:22;4.30;;;1.60;;
7150;SDS011;3617;48.836;9.172;2023-08-31T02:37:48;2.43;;;1.60;;
7150;SDS011;3617;48.836;9.172;2023-08-31T02:40:14;5.30;;;1.50;;
7150;SDS011;3617;48.836;9.172;2023-08-31T02:42:40;2.43;;;1.70;;
7150;SDS011;3617;48.836;9.172;2023-08-31T02:45:07;2.73;;;1.50;;
7150;SDS011;3617;48.836;9.172;2023-08-31T02:47:33;2.70;;;1.20;;
7150;SDS011;3617;48.836;9.172;2023-08-31T02:49:59;2.33;;;1.70;;
7150;SDS011;3617;48.836;9.172;2023-08-31T02:52:25;1.87;;;1.37;;
7150;SDS011;3617;48.836;9.172;2023-08-31T02:54:51;1.50;;;1.40;;
7150;SDS011;3617;48.836;9.172;2023-08-31T02:57:17;1.73;;;1.57;;
7150;SDS011;3617;48.836;9.172;2023-08-31T02:59:44;2.80;;;1.40;;
7150;SDS011;3617;48.836;9.172;2023-08-31T03:02:11;2.23;;;1.80;;
7150;SDS011;3617;48.836;9.172;2023-08-31T03:04:37;3.70;;;1.83;;
7150;SDS011;3617;48.836;9.172;2023-08-31T03:07:04;3.57;;;1.50;;
7150;SDS011;3617;48.836;9.172;2023-08-31T03:09:30;2.07;;;1.47;;
7150;SDS011;3617;48.836;9.172;2023-08-31T03:11:56;2.67;;;1.60;;
7150;SDS011;3617;48.836;9.172;2023-08-31T03:14:22;2.63;;;1.47;;
7150;SDS011;3617;48.836;9.172;2023-08-31T03:16:48;2.00;;;1.47;;
7150;SDS011;3617;48.836;9.172;2023-08-31T03:19:14;2.87;;;1.50;;
7150;SDS011;3617;48.836;9.172;2023-08-31T03:21:40;1.90;;;1.33;;
7150;SDS011;3617;48.836;9.172;2023-08-31T03:24:06;3.20;;;1.20;;
7150;SDS011;3617;48.836;9.172;2023-08-31T03:26:32;2.53;;;1.40;;
7150;SDS011;3617;48.836;9.172;2023-08-31T03:28:59;2.37;;;1.33;;
7150;SDS011;3617;48.836;9.172;2023-08-31T03:31:25;2.77;;;1.60;;
7150;SDS011;3617;48.836;9.172;2023-08-31T03:33:51;2.17;;;1.40;;
7150;SDS011;3617;48.836;9.172;2023-08-31T03:36:17;3.57;;;1.80;;
7150;SDS011;3617;48.836;9.172;2023-08-31T03:38:43;3.00;;;1.60;;
7150;SDS011;3617;48.836;9.172;2023-08-31T03:41:09;1.97;;;1.23;;
7150;SDS011;3617;48.836;9.172;2023-08-31T03:43:35;1.80;;;1.30;;
7150;SDS011;3617;48.836;9.172;2023-08-31T03:46:01;1.83;;;1.47;;
7150;SDS011;3617;48.836;9.172;2023-08-31T03:48:27;2.17;;;1.53;;
7150;SDS011;3617;48.836;9.172;2023-08-31T03:50:53;3.13;;;1.87;;
7150;SDS011;3617;48.836;9.172;2023-08-31T03:53:20;1.93;;;1.60;;
7150;SDS011;3617;48.836;9.172;2023-08-31T03:55:46;2.03;;;1.57;;
7150;SDS011;3617;48.836;9.172;2023-08-31T03:58:12;2.27;;;1.77;;
7150;SDS011;3617;48.836;9.172;2023-08-31T04:00:38;2.27;;;1.50;;
7150;SDS011;3617;48.836;9.172;2023-08-31T04:03:04;2.40;;;1.70;;
7150;SDS011;3617;48.836;9.172;2023-08-31T04:05:33;4.20;;;1.80;;
7150;SDS011;3617;48.836;9.172;2023-08-31T04:08:00;2.70;;;1.40;;
7150;SDS011;3617;48.836;9.172;2023-08-31T04:10:26;4.50;;;2.13;;
7150;SDS011;3617;48.836;9.172;2023-08-31T04:12:54;3.03;;;1.60;;
7150;SDS011;3617;48.836;9.172;2023-08-31T04:15:20;3.10;;;1.80;;
7150;SDS011;3617;48.836;9.172;2023-08-31T04:17:46;3.00;;;1.80;;
7150;SDS011;3617;48.836;9.172;2023-08-31T04:20:12;2.20;;;1.77;;
7150;SDS011;3617;48.836;9.172;2023-08-31T04:22:38;2.17;;;1.70;;
7150;SDS011;3617;48.836;9.172;2023-08-31T04:25:04;2.97;;;1.80;;
7150;SDS011;3617;48.836;9.172;2023-08-31T04:27:30;2.30;;;1.80;;
7150;SDS011;3617;48.836;9.172;2023-08-31T04:29:58;2.03;;;1.60;;
7150;SDS011;3617;48.836;9.172;2023-08-31T04:32:24;2.03;;;1.57;;
7150;SDS011;3617;48.836;9.172;2023-08-31T04:34:51;1.90;;;1.33;;
7150;SDS011;3617;48.836;9.172;2023-08-31T04:37:17;2.47;;;1.57;;
7150;SDS011;3617;48.836;9.172;2023-08-31T04:39:43;2.13;;;1.43;;
7150;SDS011;3617;48.836;9.172;2023-08-31T04:42:09;2.00;;;1.37;;
7150;SDS011;3617;48.836;9.172;2023-08-31T04:44:35;2.47;;;1.60;;
7150;SDS011;3617;48.836;9.172;2023-08-31T04:47:01;1.97;;;1.77;;
7150;SDS011;3617;48.836;9.172;2023-08-31T04:49:27;1.83;;;1.37;;
7150;SDS011;3617;48.836;9.172;2023-08-31T04:51:53;1.93;;;1.53;;
7150;SDS011;3617;48.836;9.172;2023-08-31T04:54:19;2.80;;;1.57;;
7150;SDS011;3617;48.836;9.172;2023-08-31T04:56:45;2.27;;;1.60;;
7150;SDS011;3617;48.836;9.172;2023-08-31T04:59:11;3.50;;;1.47;;
7150;SDS011;3617;48.836;9.172;2023-08-31T05:01:37;1.80;;;1.70;;
7150;SDS011;3617;48.836;9.172;2023-08-31T05:04:03;2.40;;;1.50;;
7150;SDS011;3617;48.836;9.172;2023-08-31T05:06:29;2.17;;;1.57;;
7150;SDS011;3617;48.836;9.172;2023-08-31T05:08:55;2.43;;;1.80;;
7150;SDS011;3617;48.836;9.172;2023-08-31T05:11:21;2.77;;;1.90;;
7150;SDS011;3617;48.836;9.172;2023-08-31T05:13:47;2.80;;;1.70;;
7150;SDS011;3617;48.836;9.172;2023-08-31T05:16:13;2.23;;;1.50;;
7150;SDS011;3617;48.836;9.172;2023-08-31T05:18:40;2.27;;;1.57;;
7150;SDS011;3617;48.836;9.172;2023-08-31T05:21:06;1.87;;;1.57;;
7150;SDS011;3617;48.836;9.172;2023-08-31T05:23:32;2.17;;;1.70;;
7150;SDS011;3617;48.836;9.172;2023-08-31T05:25:58;3.97;;;1.90;;
7150;SDS011;3617;48.836;9.172;2023-08-31T05:28:26;3.00;;;1.67;;
7150;SDS011;3617;48.836;9.172;2023-08-31T05:30:53;2.33;;;1.80;;
7150;SDS011;3617;48.836;9.172;2023-08-31T05:33:19;2.90;;;1.97;;
7150;SDS011;3617;48.836;9.172;2023-08-31T05:35:47;3.57;;;2.37;;
7150;SDS011;3617;48.836;9.172;2023-08-31T05:38:13;2.50;;;2.10;;
7150;SDS011;3617;48.836;9.172;2023-08-31T05:40:39;2.23;;;1.80;;
7150;SDS011;3617;48.836;9.172;2023-08-31T05:43:10;2.23;;;1.50;;
7150;SDS011;3617;48.836;9.172;2023-08-31T05:45:36;2.50;;;1.73;;
7150;SDS011;3617;48.836;9.172;2023-08-31T05:48:02;2.90;;;2.13;;
7150;SDS011;3617;48.836;9.172;2023-08-31T05:50:29;2.50;;;1.90;;
7150;SDS011;3617;48.836;9.172;2023-08-31T05:52:56;3.50;;;2.07;;
7150;SDS011;3617;48.836;9.172;2023-08-31T05:55:22;2.93;;;1.80;;
7150;SDS011;3617;48.836;9.172;2023-08-31T05:57:48;2.80;;;1.93;;
7150;SDS011;3617;48.836;9.172;2023-08-31T06:00:14;2.50;;;1.63;;
7150;SDS011;3617;48.836;9.172;2023-08-31T06:02:41;3.60;;;2.03;;
7150;SDS011;3617;48.836;9.172;2023-08-31T06:05:09;2.27;;;1.40;;
7150;SDS011;3617;48.836;9.172;2023-08-31T06:07:37;2.73;;;1.63;;
7150;SDS011;3617;48.836;9.172;2023-08-31T06:10:03;1.70;;;1.60;;
7150;SDS011;3617;48.836;9.172;2023-08-31T06:12:29;3.17;;;1.90;;
7150;SDS011;3617;48.836;9.172;2023-08-31T06:14:56;3.20;;;1.37;;
7150;SDS011;3617;48.836;9.172;2023-08-31T06:17:22;2.17;;;1.73;;
7150;SDS011;3617;48.836;9.172;2023-08-31T06:19:48;5.63;;;1.80;;
7150;SDS011;3617;48.836;9.172;2023-08-31T06:22:13;4.53;;;1.60;;
7150;SDS011;3617;48.836;9.172;2023-08-31T06:24:40;2.10;;;1.50;;
7150;SDS011;3617;48.836;9.172;2023-08-31T06:27:07;3.43;;;1.47;;
7150;SDS011;3617;48.836;9.172;2023-08-31T06:29:33;3.73;;;1.30;;
7150;SDS011;3617;48.836;9.172;2023-08-31T06:31:59;4.57;;;1.67;;
7150;SDS011;3617;48.836;9.172;2023-08-31T06:34:25;3.90;;;1.70;;
7150;SDS011;3617;48.836;9.172;2023-08-31T06:36:51;2.10;;;1.90;;
7150;SDS011;3617;48.836;9.172;2023-08-31T06:39:17;2.40;;;1.67;;
7150;SDS011;3617;48.836;9.172;2023-08-31T06:41:43;2.03;;;1.70;;
7150;SDS011;3617;48.836;9.172;2023-08-31T06:44:09;2.50;;;1.83;;
7150;SDS011;3617;48.836;9.172;2023-08-31T06:46:35;3.00;;;1.60;;
7150;SDS011;3617;48.836;9.172;2023-08-31T06:49:03;2.20;;;1.65;;
7150;SDS011;3617;48.836;9.172;2023-08-31T06:51:30;2.22;;;1.42;;
7150;SDS011;3617;48.836;9.172;2023-08-31T06:53:56;1.88;;;1.20;;
7150;SDS011;3617;48.836;9.172;2023-08-31T06:56:27;1.58;;;1.38;;
7150;SDS011;3617;48.836;9.172;2023-08-31T06:58:53;1.07;;;0.97;;
7150;SDS011;3617;48.836;9.172;2023-08-31T07:01:19;2.47;;;1.40;;
7150;SDS011;3617;48.836;9.172;2023-08-31T07:03:44;2.13;;;1.10;;
7150;SDS011;3617;48.836;9.172;2023-08-31T07:06:11;1.50;;;1.05;;
7150;SDS011;3617;48.836;9.172;2023-08-31T07:08:37;1.30;;;1.10;;
7150;SDS011;3617;48.836;9.172;2023-08-31T07:11:05;2.03;;;1.50;;
7150;SDS011;3617;48.836;9.172;2023-08-31T07:13:31;1.90;;;1.13;;
7150;SDS011;3617;48.836;9.172;2023-08-31T07:15:57;2.23;;;1.20;;
7150;SDS011;3617;48.836;9.172;2023-08-31T07:18:23;1.37;;;1.00;;
7150;SDS011;3617;48.836;9.172;2023-08-31T07:20:49;2.37;;;1.10;;
7150;SDS011;3617;48.836;9.172;2023-08-31T07:23:15;1.13;;;1.03;;
7150;SDS011;3617;48.836;9.172;2023-08-31T07:25:41;1.70;;;1.00;;
7150;SDS011;3617;48.836;9.172;2023-08-31T07:28:07;1.02;;;0.90;;
7150;SDS011;3617;48.836;9.172;2023-08-31T07:30:33;1.90;;;1.30;;
7150;SDS011;3617;48.836;9.172;2023-08-31T07:32:59;1.00;;;0.85;;
7150;SDS011;3617;48.836;9.172;2023-08-31T07:35:28;1.58;;;0.88;;
7150;SDS011;3617;48.836;9.172;2023-08-31T07:37:54;1.20;;;0.90;;
7150;SDS011;3617;48.836;9.172;2023-08-31T07:40:20;2.13;;;1.13;;
7150;SDS011;3617;48.836;9.172;2023-08-31T07:42:46;1.20;;;0.90;;
7150;SDS011;3617;48.836;9.172;2023-08-31T07:45:12;1.40;;;0.70;;
7150;SDS011;3617;48.836;9.172;2023-08-31T07:47:38;1.88;;;1.00;;
7150;SDS011;3617;48.836;9.172;2023-08-31T07:50:04;0.63;;;0.63;;
7150;SDS011;3617;48.836;9.172;2023-08-31T07:52:30;1.80;;;0.85;;
7150;SDS011;3617;48.836;9.172;2023-08-31T07:54:56;1.13;;;0.90;;
7150;SDS011;3617;48.836;9.172;2023-08-31T07:57:22;1.45;;;0.90;;
7150;SDS011;3617;48.836;9.172;2023-08-31T07:59:48;1.10;;;0.80;;
7150;SDS011;3617;48.836;9.172;2023-08-31T08:02:14;1.13;;;0.70;;
7150;SDS011;3617;48.836;9.172;2023-08-31T08:04:41;2.05;;;0.95;;
7150;SDS011;3617;48.836;9.172;2023-08-31T08:07:07;1.55;;;1.00;;
7150;SDS011;3617;48.836;9.172;2023-08-31T08:09:33;1.15;;;0.82;;
7150;SDS011;3617;48.836;9.172;2023-08-31T08:12:00;1.63;;;1.30;;
7150;SDS011;3617;48.836;9.172;2023-08-31T08:14:26;1.65;;;1.20;;
7150;SDS011;3617;48.836;9.172;2023-08-31T08:16:52;1.95;;;1.05;;
7150;SDS011;3617;48.836;9.172;2023-08-31T08:19:20;1.50;;;0.90;;
7150;SDS011;3617;48.836;9.172;2023-08-31T08:21:47;1.90;;;1.02;;
7150;SDS011;3617;48.836;9.172;2023-08-31T08:24:13;1.52;;;0.90;;
7150;SDS011;3617;48.836;9.172;2023-08-31T08:26:39;3.25;;;1.20;;
7150;SDS011;3617;48.836;9.172;2023-08-31T08:29:05;1.60;;;1.15;;
7150;SDS011;3617;48.836;9.172;2023-08-31T08:31:31;1.20;;;0.95;;
7150;SDS011;3617;48.836;9.172;2023-08-31T08:33:57;1.85;;;0.82;;
7150;SDS011;3617;48.836;9.172;2023-08-31T08:36:23;1.20;;;0.93;;
7150;SDS011;3617;48.836;9.172;2023-08-31T08:38:49;3.58;;;1.13;;
7150;SDS011;3617;48.836;9.172;2023-08-31T08:41:15;1.63;;;0.90;;
7150;SDS011;3617;48.836;9.172;2023-08-31T08:43:44;2.38;;;1.10;;
7150;SDS011;3617;48.836;9.172;2023-08-31T08:46:11;2.33;;;1.23;;
7150;SDS011;3617;48.836;9.172;2023-08-31T08:48:37;1.83;;;1.25;;
7150;SDS011;3617;48.836;9.172;2023-08-31T08:51:03;2.72;;;1.13;;
7150;SDS011;3617;48.836;9.172;2023-08-31T08:53:30;1.83;;;0.93;;
7150;SDS011;3617;48.836;9.172;2023-08-31T08:55:56;1.40;;;1.02;;
7150;SDS011;3617;48.836;9.172;2023-08-31T08:58:23;1.55;;;0.90;;
7150;SDS011;3617;48.836;9.172;2023-08-31T09:00:49;2.08;;;1.10;;
7150;SDS011;3617;48.836;9.172;2023-08-31T09:03:16;2.00;;;1.00;;
7150;SDS011;3617;48.836;9.172;2023-08-31T09:05:42;1.98;;;1.10;;
7150;SDS011;3617;48.836;9.172;2023-08-31T09:08:08;3.00;;;1.15;;
7150;SDS011;3617;48.836;9.172;2023-08-31T09:10:38;1.60;;;1.10;;
7150;SDS011;3617;48.836;9.172;2023-08-31T09:13:04;1.15;;;0.80;;
7150;SDS011;3617;48.836;9.172;2023-08-31T09:15:39;1.73;;;0.88;;
7150;SDS011;3617;48.836;9.172;2023-08-31T09:18:06;1.27;;;0.93;;
7150;SDS011;3617;48.836;9.172;2023-08-31T09:20:32;2.08;;;1.10;;
7150;SDS011;3617;48.836;9.172;2023-08-31T09:23:09;2.03;;;1.10;;
7150;SDS011;3617;48.836;9.172;2023-08-31T09:25:45;1.10;;;0.85;;
7150;SDS011;3617;48.836;9.172;2023-08-31T09:28:13;1.52;;;0.93;;
7150;SDS011;3617;48.836;9.172;2023-08-31T09:30:41;1.83;;;1.02;;
7150;SDS011;3617;48.836;9.172;2023-08-31T09:33:07;1.38;;;1.00;;
7150;SDS011;3617;48.836;9.172;2023-08-31T09:35:38;2.75;;;1.05;;
7150;SDS011;3617;48.836;9.172;2023-08-31T09:38:06;3.65;;;0.90;;
7150;SDS011;3617;48.836;9.172;2023-08-31T09:40:32;0.95;;;0.80;;
7150;SDS011;3617;48.836;9.172;2023-08-31T09:42:58;1.40;;;0.98;;
7150;SDS011;3617;48.836;9.172;2023-08-31T09:45:29;2.15;;;0.90;;
7150;SDS011;3617;48.836;9.172;2023-08-31T09:47:56;1.67;;;1.02;;
7150;SDS011;3617;48.836;9.172;2023-08-31T09:50:23;2.13;;;1.08;;
7150;SDS011;3617;48.836;9.172;2023-08-31T09:52:49;1.05;;;0.80;;
7150;SDS011;3617;48.836;9.172;2023-08-31T09:55:16;1.25;;;1.00;;
7150;SDS011;3617;48.836;9.172;2023-08-31T09:57:44;2.58;;;0.95;;
7150;SDS011;3617;48.836;9.172;2023-08-31T10:00:10;0.88;;;0.70;;
7150;SDS011;3617;48.836;9.172;2023-08-31T10:02:40;2.22;;;1.20;;
7150;SDS011;3617;48.836;9.172;2023-08-31T10:05:07;1.58;;;1.00;;
7150;SDS011;3617;48.836;9.172;2023-08-31T10:07:33;2.03;;;0.85;;
7150;SDS011;3617;48.836;9.172;2023-08-31T10:10:00;1.25;;;0.73;;
7150;SDS011;3617;48.836;9.172;2023-08-31T10:12:27;2.17;;;1.15;;
7150;SDS011;3617;48.836;9.172;2023-08-31T10:14:53;2.10;;;0.88;;
7150;SDS011;3617;48.836;9.172;2023-08-31T10:17:20;2.17;;;1.00;;
7150;SDS011;3617;48.836;9.172;2023-08-31T10:19:46;1.38;;;0.82;;
7150;SDS011;3617;48.836;9.172;2023-08-31T10:22:14;1.00;;;0.80;;
7150;SDS011;3617;48.836;9.172;2023-08-31T10:27:25;1.63;;;1.10;;
7150;SDS011;3617;48.836;9.172;2023-08-31T10:29:51;0.73;;;0.73;;
7150;SDS011;3617;48.836;9.172;2023-08-31T10:32:17;1.88;;;1.00;;
7150;SDS011;3617;48.836;9.172;2023-08-31T10:34:43;0.90;;;0.80;;
7150;SDS011;3617;48.836;9.172;2023-08-31T10:37:21;2.65;;;0.80;;
7150;SDS011;3617;48.836;9.172;2023-08-31T10:39:47;2.13;;;1.00;;
7150;SDS011;3617;48.836;9.172;2023-08-31T10:42:13;1.17;;;0.75;;
7150;SDS011;3617;48.836;9.172;2023-08-31T10:44:41;1.52;;;0.88;;
7150;SDS011;3617;48.836;9.172;2023-08-31T10:47:08;1.15;;;0.85;;
7150;SDS011;3617;48.836;9.172;2023-08-31T10:49:34;2.60;;;1.10;;
7150;SDS011;3617;48.836;9.172;2023-08-31T10:52:15;2.38;;;1.33;;
7150;SDS011;3617;48.836;9.172;2023-08-31T10:54:42;1.80;;;1.10;;
7150;SDS011;3617;48.836;9.172;2023-08-31T10:57:08;1.83;;;1.00;;
7150;SDS011;3617;48.836;9.172;2023-08-31T10:59:47;1.63;;;1.08;;
7150;SDS011;3617;48.836;9.172;2023-08-31T11:07:33;3.65;;;1.45;;
7150;SDS011;3617;48.836;9.172;2023-08-31T11:10:07;3.70;;;1.27;;
7150;SDS011;3617;48.836;9.172;2023-08-31T11:12:34;4.00;;;1.10;;
7150;SDS011;3617;48.836;9.172;2023-08-31T11:15:00;1.70;;;1.00;;
7150;SDS011;3617;48.836;9.172;2023-08-31T11:17:26;1.85;;;1.20;;
7150;SDS011;3617;48.836;9.172;2023-08-31T11:19:52;2.83;;;1.02;;
7150;SDS011;3617;48.836;9.172;2023-08-31T11:22:18;1.60;;;1.00;;
7150;SDS011;3617;48.836;9.172;2023-08-31T11:24:44;1.25;;;1.02;;
7150;SDS011;3617;48.836;9.172;2023-08-31T11:27:12;3.25;;;1.10;;
7150;SDS011;3617;48.836;9.172;2023-08-31T11:29:42;2.00;;;1.00;;
7150;SDS011;3617;48.836;9.172;2023-08-31T11:32:09;1.98;;;0.95;;
7150;SDS011;3617;48.836;9.172;2023-08-31T11:34:35;2.72;;;1.40;;
7150;SDS011;3617;48.836;9.172;2023-08-31T11:37:01;1.48;;;1.10;;
7150;SDS011;3617;48.836;9.172;2023-08-31T11:39:28;2.42;;;1.40;;
7150;SDS011;3617;48.836;9.172;2023-08-31T11:41:54;1.80;;;1.13;;
7150;SDS011;3617;48.836;9.172;2023-08-31T11:44:20;3.53;;;1.10;;
7150;SDS011;3617;48.836;9.172;2023-08-31T11:46:46;2.53;;;1.15;;
7150;SDS011;3617;48.836;9.172;2023-08-31T11:49:15;2.38;;;1.23;;
7150;SDS011;3617;48.836;9.172;2023-08-31T11:51:41;8.15;;;1.15;;
7150;SDS011;3617;48.836;9.172;2023-08-31T11:54:08;1.63;;;1.02;;
7150;SDS011;3617;48.836;9.172;2023-08-31T11:56:42;5.22;;;1.00;;
7150;SDS011;3617;48.836;9.172;2023-08-31T11:59:11;1.52;;;0.93;;
7150;SDS011;3617;48.836;9.172;2023-08-31T12:01:40;1.60;;;1.10;;
7150;SDS011;3617;48.836;9.172;2023-08-31T12:04:10;2.45;;;1.00;;
7150;SDS011;3617;48.836;9.172;2023-08-31T12:06:36;1.30;;;1.15;;
7150;SDS011;3617;48.836;9.172;2023-08-31T12:09:04;3.88;;;1.08;;
7150;SDS011;3617;48.836;9.172;2023-08-31T12:11:30;4.72;;;1.20;;
7150;SDS011;3617;48.836;9.172;2023-08-31T12:14:00;3.33;;;1.38;;
7150;SDS011;3617;48.836;9.172;2023-08-31T12:16:36;1.88;;;1.08;;
7150;SDS011;3617;48.836;9.172;2023-08-31T12:19:02;1.65;;;0.90;;
7150;SDS011;3617;48.836;9.172;2023-08-31T12:21:31;1.30;;;0.95;;
7150;SDS011;3617;48.836;9.172;2023-08-31T12:24:00;1.20;;;0.98;;
7150;SDS011;3617;48.836;9.172;2023-08-31T12:26:28;1.75;;;1.30;;
7150;SDS011;3617;48.836;9.172;2023-08-31T12:28:55;3.40;;;1.23;;
7150;SDS011;3617;48.836;9.172;2023-08-31T12:31:22;1.52;;;1.15;;
7150;SDS011;3617;48.836;9.172;2023-08-31T12:33:48;1.33;;;1.23;;
7150;SDS011;3617;48.836;9.172;2023-08-31T12:36:14;6.18;;;1.17;;
7150;SDS011;3617;48.836;9.172;2023-08-31T12:38:40;4.07;;;1.20;;
7150;SDS011;3617;48.836;9.172;2023-08-31T12:41:06;1.63;;;0.95;;
7150;SDS011;3617;48.836;9.172;2023-08-31T12:43:33;2.03;;;0.90;;
7150;SDS011;3617;48.836;9.172;2023-08-31T12:46:00;2.17;;;1.20;;
7150;SDS011;3617;48.836;9.172;2023-08-31T12:48:26;1.58;;;1.02;;
7150;SDS011;3617;48.836;9.172;2023-08-31T12:50:52;1.52;;;0.90;;
7150;SDS011;3617;48.836;9.172;2023-08-31T12:53:20;3.00;;;1.38;;
7150;SDS011;3617;48.836;9.172;2023-08-31T12:55:46;3.45;;;1.20;;
7150;SDS011;3617;48.836;9.172;2023-08-31T12:58:12;3.72;;;1.27;;
7150;SDS011;3617;48.836;9.172;2023-08-31T13:00:38;2.20;;;1.48;;
7150;SDS011;3617;48.836;9.172;2023-08-31T13:03:04;2.38;;;1.33;;
7150;SDS011;3617;48.836;9.172;2023-08-31T13:05:32;1.60;;;1.20;;
7150;SDS011;3617;48.836;9.172;2023-08-31T13:07:57;1.92;;;1.00;;
7150;SDS011;3617;48.836;9.172;2023-08-31T13:10:24;1.40;;;1.20;;
7150;SDS011;3617;48.836;9.172;2023-08-31T13:12:50;3.65;;;1.42;;
7150;SDS011;3617;48.836;9.172;2023-08-31T13:15:16;1.08;;;0.98;;
7150;SDS011;3617;48.836;9.172;2023-08-31T13:17:42;1.25;;;0.98;;
7150;SDS011;3617;48.836;9.172;2023-08-31T13:20:08;1.90;;;1.15;;
7150;SDS011;3617;48.836;9.172;2023-08-31T13:22:34;2.55;;;1.10;;
7150;SDS011;3617;48.836;9.172;2023-08-31T13:25:00;1.73;;;1.17;;
7150;SDS011;3617;48.836;9.172;2023-08-31T13:27:26;3.13;;;0.93;;
7150;SDS011;3617;48.836;9.172;2023-08-31T13:29:52;2.78;;;1.05;;
7150;SDS011;3617;48.836;9.172;2023-08-31T13:32:18;2.58;;;1.00;;
7150;SDS011;3617;48.836;9.172;2023-08-31T13:34:44;2.88;;;0.98;;
7150;SDS011;3617;48.836;9.172;2023-08-31T13:37:10;1.23;;;1.10;;
7150;SDS011;3617;48.836;9.172;2023-08-31T13:39:36;3.58;;;1.35;;
7150;SDS011;3617;48.836;9.172;2023-08-31T13:42:02;2.03;;;0.93;;
7150;SDS011;3617;48.836;9.172;2023-08-31T13:44:29;1.42;;;1.00;;
7150;SDS011;3617;48.836;9.172;2023-08-31T13:46:56;1.80;;;1.20;;
7150;SDS011;3617;48.836;9.172;2023-08-31T13:49:22;2.53;;;1.20;;
7150;SDS011;3617;48.836;9.172;2023-08-31T13:51:48;1.52;;;1.05;;
7150;SDS011;3617;48.836;9.172;2023-08-31T13:54:14;1.20;;;0.95;;
7150;SDS011;3617;48.836;9.172;2023-08-31T13:56:40;3.33;;;1.30;;
7150;SDS011;3617;48.836;9.172;2023-08-31T13:59:07;1.75;;;1.00;;
7150;SDS011;3617;48.836;9.172;2023-08-31T14:01:33;3.75;;;1.23;;
7150;SDS011;3617;48.836;9.172;2023-08-31T14:04:00;1.30;;;1.08;;
7150;SDS011;3617;48.836;9.172;2023-08-31T14:06:27;7.55;;;1.27;;
7150;SDS011;3617;48.836;9.172;2023-08-31T14:08:53;29.63;;;2.28;;
7150;SDS011;3617;48.836;9.172;2023-08-31T14:11:19;1.92;;;1.08;;
7150;SDS011;3617;48.836;9.172;2023-08-31T14:13:45;1.13;;;1.00;;
7150;SDS011;3617;48.836;9.172;2023-08-31T14:16:11;2.90;;;1.30;;
7150;SDS011;3617;48.836;9.172;2023-08-31T14:18:37;3.25;;;1.13;;
7150;SDS011;3617;48.836;9.172;2023-08-31T14:21:03;2.70;;;1.05;;
7150;SDS011;3617;48.836;9.172;2023-08-31T14:23:29;3.35;;;1.20;;
7150;SDS011;3617;48.836;9.172;2023-08-31T14:26:02;1.60;;;1.00;;
7150;SDS011;3617;48.836;9.172;2023-08-31T14:28:29;1.85;;;1.20;;
7150;SDS011;3617;48.836;9.172;2023-08-31T14:30:55;1.27;;;0.95;;
7150;SDS011;3617;48.836;9.172;2023-08-31T14:33:21;3.90;;;1.30;;
7150;SDS011;3617;48.836;9.172;2023-08-31T14:35:51;1.70;;;1.08;;
7150;SDS011;3617;48.836;9.172;2023-08-31T14:38:21;3.42;;;1.10;;
7150;SDS011;3617;48.836;9.172;2023-08-31T14:40:47;1.85;;;1.20;;
7150;SDS011;3617;48.836;9.172;2023-08-31T14:43:13;0.93;;;0.82;;
7150;SDS011;3617;48.836;9.172;2023-08-31T14:45:39;2.75;;;1.50;;
7150;SDS011;3617;48.836;9.172;2023-08-31T14:48:05;1.17;;;1.08;;
7150;SDS011;3617;48.836;9.172;2023-08-31T14:50:31;2.45;;;1.20;;
7150;SDS011;3617;48.836;9.172;2023-08-31T14:52:57;2.05;;;1.30;;
7150;SDS011;3617;48.836;9.172;2023-08-31T14:55:24;3.88;;;1.17;;
7150;SDS011;3617;48.836;9.172;2023-08-31T14:57:50;1.85;;;1.40;;
7150;SDS011;3617;48.836;9.172;2023-08-31T15:00:16;1.27;;;0.77;;
7150;SDS011;3617;48.836;9.172;2023-08-31T15:02:43;2.08;;;1.20;;
7150;SDS011;3617;48.836;9.172;2023-08-31T15:05:09;3.03;;;1.30;;
7150;SDS011;3617;48.836;9.172;2023-08-31T15:07:35;2.25;;;1.20;;
7150;SDS011;3617;48.836;9.172;2023-08-31T15:10:01;5.05;;;1.38;;
7150;SDS011;3617;48.836;9.172;2023-08-31T15:12:28;2.55;;;1.10;;
7150;SDS011;3617;48.836;9.172;2023-08-31T15:14:54;2.00;;;1.27;;
7150;SDS011;3617;48.836;9.172;2023-08-31T15:17:20;3.40;;;1.30;;
7150;SDS011;3617;48.836;9.172;2023-08-31T15:19:46;3.58;;;1.50;;
7150;SDS011;3617;48.836;9.172;2023-08-31T15:22:12;2.92;;;1.60;;
7150;SDS011;3617;48.836;9.172;2023-08-31T15:24:38;1.92;;;1.05;;